Time;durP1;ratioP1;P1;durP2;ratioP2;P2;SDS_P1;SDS_P2;PMS_P1;PMS_P2;Temp;Humidity;BMP_temperature;BMP_pressure;BME280_temperature;BME280_humidity;BME280_pressure;Samples;Min_cycle;Max_cycle;Signal;HPM_P1;HPM_P2
2021/04/24 00:00:24;;;;;;;4.76;2.25;;;;;;;8.07;47.23;99331.95;351749;111;1961955;-71
2021/04/24 00:01:31;;;;;;;5.57;2.12;;;;;;;8.10;47.21;99326.20;356651;111;1961922;-71
2021/04/24 00:02:44;;;;;;;4.33;2.15;;;;;;;8.16;47.05;99333.47;356119;111;1964376;-71
2021/04/24 00:03:49;;;;;;;3.64;1.84;;;;;;;8.14;46.85;99339.03;354718;111;1964042;-71
2021/04/24 00:05:07;;;;;;;4.43;2.10;;;;;;;8.07;47.21;99332.81;333491;114;2260003;-72
2021/04/24 00:06:13;;;;;;;5.91;2.47;;;;;;;8.10;47.07;99327.03;349254;114;1962969;-71
2021/04/24 00:07:19;;;;;;;7.75;2.44;;;;;;;8.08;47.21;99331.77;360626;110;1961982;-72
2021/04/24 00:08:25;;;;;;;4.26;1.94;;;;;;;8.12;46.98;99324.98;311761;110;2101999;-72
2021/04/24 00:09:30;;;;;;;4.36;1.97;;;;;;;8.10;47.42;99329.72;327018;110;1965081;-71
2021/04/24 00:10:40;;;;;;;8.87;2.82;;;;;;;8.03;47.39;99325.33;360819;110;1961940;-71
2021/04/24 00:11:46;;;;;;;6.00;2.59;;;;;;;8.10;47.22;99326.20;360432;110;1962025;-71
2021/04/24 00:12:52;;;;;;;6.21;2.41;;;;;;;7.96;47.79;99325.27;360379;110;1962953;-71
2021/04/24 00:13:57;;;;;;;5.61;2.32;;;;;;;8.04;47.36;99335.05;360157;110;1961930;-72
2021/04/24 00:15:07;;;;;;;7.03;2.62;;;;;;;8.12;47.33;99333.05;361086;110;1963924;-71
2021/04/24 00:16:14;;;;;;;4.67;1.96;;;;;;;8.12;47.61;99327.67;301357;112;2200373;-71
2021/04/24 00:17:20;;;;;;;5.42;2.18;;;;;;;8.10;47.94;99331.58;354138;111;1962012;-71
2021/04/24 00:18:25;;;;;;;5.29;2.13;;;;;;;8.04;47.71;99326.97;357002;112;1962026;-71
2021/04/24 00:19:31;;;;;;;4.69;2.07;;;;;;;8.00;47.93;99337.31;362204;110;1961997;-71
2021/04/24 00:20:40;;;;;;;5.56;2.11;;;;;;;8.07;47.72;99326.57;334642;110;2236997;-72
2021/04/24 00:21:46;;;;;;;4.53;2.37;;;;;;;8.06;47.93;99327.61;358703;110;1964087;-70
2021/04/24 00:22:52;;;;;;;7.02;2.11;;;;;;;8.02;48.23;99329.87;360215;110;1963963;-71
2021/04/24 00:23:58;;;;;;;4.36;1.79;;;;;;;8.08;47.83;99323.70;334391;110;2416936;-71
2021/04/24 00:25:05;;;;;;;5.76;2.14;;;;;;;8.13;47.59;99333.88;343204;110;1960676;-70
2021/04/24 00:26:12;;;;;;;4.58;1.89;;;;;;;8.10;47.87;99328.89;359441;110;1960917;-71
2021/04/24 00:27:18;;;;;;;5.97;2.12;;;;;;;8.05;48.20;99332.17;324486;110;2623939;-71
2021/04/24 00:28:23;;;;;;;7.37;2.01;;;;;;;8.07;48.19;99330.12;336896;111;1962947;-71
2021/04/24 00:29:28;;;;;;;7.73;1.99;;;;;;;8.05;48.15;99331.34;354361;112;1961929;-72
2021/04/24 00:30:35;;;;;;;5.17;2.36;;;;;;;8.07;48.31;99334.64;361193;110;1961997;-71
2021/04/24 00:31:40;;;;;;;6.11;1.99;;;;;;;8.05;48.30;99329.48;360703;110;1961942;-72
2021/04/24 00:32:47;;;;;;;4.71;1.88;;;;;;;8.05;48.36;99336.72;359135;104;1961994;-72
2021/04/24 00:33:52;;;;;;;4.67;1.87;;;;;;;8.04;48.16;99329.66;315427;112;2011575;-71
2021/04/24 00:34:58;;;;;;;5.13;1.94;;;;;;;8.03;48.34;99336.91;350517;112;1962007;-73
2021/04/24 00:36:04;;;;;;;3.59;2.04;;;;;;;7.87;48.99;99350.67;351194;114;1961993;-72
2021/04/24 00:37:09;;;;;;;4.56;2.09;;;;;;;7.90;48.82;99334.13;349552;115;1962946;-71
2021/04/24 00:38:14;;;;;;;7.04;2.57;;;;;;;7.88;49.21;99333.49;350641;115;1961929;-71
2021/04/24 00:39:20;;;;;;;6.57;2.42;;;;;;;7.84;49.16;99334.93;352619;114;1962034;-72
2021/04/24 00:40:27;;;;;;;4.89;2.36;;;;;;;7.81;49.33;99332.64;329524;114;2328858;-72
2021/04/24 00:41:32;;;;;;;4.95;1.91;;;;;;;7.74;49.87;99334.44;334164;115;1964951;-72
2021/04/24 00:42:39;;;;;;;5.64;2.49;;;;;;;7.74;49.58;99329.88;351125;114;1961953;-72
2021/04/24 00:43:45;;;;;;;6.61;2.38;;;;;;;7.74;49.74;99334.44;349082;115;1962012;-72
2021/04/24 00:44:53;;;;;;;8.28;3.16;;;;;;;7.73;49.99;99333.61;311574;114;2661030;-71
2021/04/24 00:45:58;;;;;;;6.71;2.24;;;;;;;7.79;49.94;99338.20;348753;116;1963905;-71
2021/04/24 00:47:03;;;;;;;6.18;2.18;;;;;;;7.74;49.95;99332.58;360548;107;1962144;-73
2021/04/24 00:48:10;;;;;;;7.93;2.39;;;;;;;7.84;49.45;99330.37;371829;109;1961999;-71
2021/04/24 00:49:15;;;;;;;5.70;2.18;;;;;;;7.83;50.06;99335.94;331871;108;1962040;-72
2021/04/24 00:50:25;;;;;;;6.12;2.54;;;;;;;7.85;49.53;99334.72;366316;109;1961908;-72
2021/04/24 00:51:31;;;;;;;6.99;2.29;;;;;;;7.89;49.63;99332.48;347712;109;1961965;-72
2021/04/24 00:52:36;;;;;;;5.23;2.36;;;;;;;7.92;49.54;99338.29;364109;109;1960824;-71
2021/04/24 00:53:42;;;;;;;7.30;1.97;;;;;;;7.79;50.14;99335.51;362743;109;1961951;-72
2021/04/24 00:54:47;;;;;;;6.29;2.55;;;;;;;7.87;49.98;99327.29;362759;109;1966003;-71
2021/04/24 00:55:52;;;;;;;6.46;2.61;;;;;;;7.97;49.61;99328.81;363701;109;1961892;-71
2021/04/24 00:57:08;;;;;;;5.92;2.38;;;;;;;7.98;49.71;99342.05;364137;109;1961913;-71
2021/04/24 00:58:13;;;;;;;7.40;2.63;;;;;;;8.06;49.55;99332.99;375571;108;1961943;-72
2021/04/24 00:59:19;;;;;;;6.46;2.34;;;;;;;8.03;49.76;99328.84;339619;106;2530930;-71
2021/04/24 01:00:25;;;;;;;5.33;2.69;;;;;;;8.15;49.33;99327.27;359597;107;1962012;-72
2021/04/24 01:01:30;;;;;;;6.51;2.17;;;;;;;8.04;49.64;99329.66;373635;106;1961952;-71
2021/04/24 01:02:38;;;;;;;5.68;2.59;;;;;;;8.05;49.62;99336.72;366850;109;1961917;-71
2021/04/24 01:03:46;;;;;;;8.30;2.47;;;;;;;7.99;49.78;99332.97;347364;107;1961772;-72
2021/04/24 01:05:03;;;;;;;4.74;1.99;;;;;;;8.01;49.76;99330.89;357489;113;1961842;-71
2021/04/24 01:06:09;;;;;;;6.43;2.24;;;;;;;7.98;49.79;99322.39;352470;109;1961984;-71
2021/04/24 01:07:14;;;;;;;5.28;2.11;;;;;;;7.98;49.80;99327.77;364642;109;1962948;-71
2021/04/24 01:08:19;;;;;;;12.91;3.78;;;;;;;7.99;49.45;99324.90;367000;109;1962966;-72
2021/04/24 01:09:26;;;;;;;4.77;2.28;;;;;;;7.95;49.78;99329.00;362856;109;1962032;-71
2021/04/24 01:10:34;;;;;;;5.46;1.99;;;;;;;7.93;49.78;99329.18;361583;111;1962005;-71
2021/04/24 01:11:39;;;;;;;4.23;1.78;;;;;;;7.88;49.92;99331.63;358401;111;1961611;-71
2021/04/24 01:12:45;;;;;;;5.91;2.44;;;;;;;7.73;50.68;99332.76;361202;111;1963919;-70
2021/04/24 01:13:55;;;;;;;5.43;2.29;;;;;;;7.75;50.69;99318.09;359761;110;1961924;31
2021/04/24 01:15:01;;;;;;;6.41;2.67;;;;;;;7.80;50.37;99323.72;361505;109;1961972;-71
2021/04/24 01:16:07;;;;;;;5.01;2.26;;;;;;;7.70;50.84;99323.26;322939;112;2586964;-72
2021/04/24 01:17:12;;;;;;;6.21;2.58;;;;;;;7.79;50.38;99326.62;343270;110;1961970;-71
2021/04/24 01:18:18;;;;;;;7.59;2.23;;;;;;;7.76;50.64;99321.64;363050;104;1960680;-72
2021/04/24 01:19:25;;;;;;;4.59;2.19;;;;;;;7.77;50.87;99328.66;358006;110;1962039;-71
2021/04/24 01:20:34;;;;;;;4.91;2.27;;;;;;;7.78;50.38;99322.25;294097;112;2226091;-72
2021/04/24 01:21:42;;;;;;;5.97;2.33;;;;;;;7.80;50.30;99312.96;355449;112;1961921;-71
2021/04/24 01:22:49;;;;;;;4.59;2.44;;;;;;;7.71;51.09;99309.59;354120;112;1962973;-71
2021/04/24 01:23:56;;;;;;;8.26;2.48;;;;;;;7.71;50.93;99320.36;359461;111;1961959;-71
2021/04/24 01:25:05;;;;;;;8.31;2.57;;;;;;;7.68;51.28;99323.44;334924;111;1961976;-71
2021/04/24 01:26:11;;;;;;;4.83;2.53;;;;;;;7.71;50.91;99325.73;340212;112;1961969;-72
2021/04/24 01:27:17;;;;;;;7.68;2.64;;;;;;;7.74;50.83;99319.13;357054;112;1962972;-71
2021/04/24 01:28:22;;;;;;;5.27;2.31;;;;;;;7.68;50.98;99331.50;354983;112;1961931;-72
2021/04/24 01:29:28;;;;;;;6.59;3.19;;;;;;;7.65;51.04;99325.70;354994;112;1962112;-72
2021/04/24 01:30:40;;;;;;;5.33;2.38;;;;;;;7.64;51.25;99324.84;356145;114;1962099;-71
2021/04/24 01:31:45;;;;;;;;;;;;;;;7.71;51.14;99328.42;357572;111;1960976;-71
2021/04/24 01:32:52;;;;;;;5.12;1.80;;;;;;;7.74;50.90;99326.38;356485;112;1960789;-70
2021/04/24 01:33:57;;;;;;;6.46;2.93;;;;;;;7.69;51.28;99326.95;355862;112;1963037;-72
2021/04/24 01:35:07;;;;;;;10.15;4.21;;;;;;;7.67;51.01;99324.48;356280;112;1962134;-71
2021/04/24 01:36:13;;;;;;;10.95;5.06;;;;;;;7.63;51.20;99327.74;352630;113;1961852;-71
2021/04/24 01:37:19;;;;;;;9.67;3.98;;;;;;;7.60;51.34;99330.83;319518;114;2608997;-71
2021/04/24 01:38:26;;;;;;;12.14;5.74;;;;;;;7.61;51.40;99327.09;354221;112;1962021;-71
2021/04/24 01:39:32;;;;;;;9.94;4.88;;;;;;;7.50;51.94;99328.46;358024;110;1961891;-70
2021/04/24 01:40:40;;;;;;;10.08;4.32;;;;;;;7.52;51.80;99330.97;320225;112;1985630;-71
2021/04/24 01:41:45;;;;;;;7.00;3.08;;;;;;;7.55;51.48;99325.20;355411;112;1962020;-70
2021/04/24 01:42:51;;;;;;;6.84;2.81;;;;;;;7.45;51.79;99338.96;356619;112;1960992;-71
2021/04/24 01:43:57;;;;;;;7.50;2.62;;;;;;;7.44;52.25;99337.31;355952;112;1961967;-71
2021/04/24 01:45:07;;;;;;;6.99;3.00;;;;;;;7.38;52.22;99333.55;307579;111;2843993;-71
2021/04/24 01:46:13;;;;;;;8.74;2.84;;;;;;;7.39;52.12;99334.38;300715;114;2192611;-71
2021/04/24 01:47:18;;;;;;;5.46;2.81;;;;;;;7.45;51.97;99331.72;353830;114;1964061;-71
2021/04/24 01:48:24;;;;;;;5.91;3.21;;;;;;;7.49;51.57;99343.77;354855;112;1962911;-71
2021/04/24 01:49:29;;;;;;;8.09;3.37;;;;;;;7.50;51.95;99333.84;354367;114;1962002;-71
2021/04/24 01:50:41;;;;;;;6.96;2.99;;;;;;;7.48;51.81;99320.58;354518;114;1962013;-71
2021/04/24 01:51:47;;;;;;;6.01;2.80;;;;;;;7.50;51.55;99325.78;317103;111;2919919;-71
2021/04/24 01:52:54;;;;;;;8.12;2.65;;;;;;;7.49;51.63;99327.64;326957;113;1970041;-71
2021/04/24 01:54:00;;;;;;;6.11;2.39;;;;;;;7.43;52.07;99319.51;356746;114;1961940;-71
2021/04/24 01:55:12;;;;;;;4.52;2.54;;;;;;;7.36;52.60;99326.70;358253;108;1962972;-71
2021/04/24 01:56:20;;;;;;;5.95;2.98;;;;;;;7.31;52.57;99329.96;368975;109;1960780;-71
2021/04/24 01:57:27;;;;;;;7.79;3.28;;;;;;;7.35;52.46;99316.96;328654;111;2607932;-71
2021/04/24 01:58:33;;;;;;;7.88;2.91;;;;;;;7.37;52.53;99320.29;362151;104;1960570;-71
2021/04/24 01:59:45;;;;;;;5.77;2.74;;;;;;;7.37;52.32;99321.12;365723;109;1961780;-70
2021/04/24 02:00:54;;;;;;;5.20;2.31;;;;;;;7.34;52.40;99320.69;330982;108;1982992;-71
2021/04/24 02:01:59;;;;;;;4.27;2.42;;;;;;;7.33;52.23;99322.55;365372;110;1961845;-71
2021/04/24 02:03:09;;;;;;;5.13;2.26;;;;;;;7.32;52.44;99326.23;317092;110;2840054;-71
2021/04/24 02:04:17;;;;;;;7.26;2.41;;;;;;;7.30;52.74;99322.08;367575;107;1961977;-71
2021/04/24 02:05:24;;;;;;;5.39;2.10;;;;;;;7.23;52.78;99322.86;366402;110;1960809;-71
2021/04/24 02:06:30;;;;;;;5.72;2.49;;;;;;;7.26;52.61;99319.78;332913;108;2551013;-70
2021/04/24 02:07:35;;;;;;;7.26;2.44;;;;;;;7.18;53.06;99317.23;337855;108;1961941;-70
2021/04/24 02:08:43;;;;;;;4.96;2.29;;;;;;;7.18;53.24;99327.16;368410;108;1961944;-71
2021/04/24 02:09:49;;;;;;;5.93;2.42;;;;;;;7.25;52.77;99318.13;363200;110;1962047;-71
2021/04/24 02:10:55;;;;;;;6.94;2.04;;;;;;;7.27;52.35;99320.61;352725;110;1963010;-70
2021/04/24 02:12:13;;;;;;;5.28;2.27;;;;;;;7.24;52.81;99329.88;366351;111;1961796;-70
2021/04/24 02:13:21;;;;;;;4.02;1.83;;;;;;;7.14;53.39;99328.55;369122;110;1962932;-72
2021/04/24 02:14:28;;;;;;;4.17;1.99;;;;;;;7.16;53.21;99331.88;367072;108;1962025;-70
2021/04/24 02:15:34;;;;;;;5.49;2.42;;;;;;;7.15;53.04;99331.05;340363;110;2398972;-71
2021/04/24 02:16:42;;;;;;;5.51;2.06;;;;;;;7.16;53.09;99327.33;371723;108;1962956;-71
2021/04/24 02:17:49;;;;;;;5.77;2.28;;;;;;;7.19;53.02;99332.31;334718;108;2567877;-71
2021/04/24 02:18:54;;;;;;;6.82;2.42;;;;;;;7.20;52.98;99327.80;366517;108;1961948;-87
2021/04/24 02:20:00;;;;;;;6.94;2.79;;;;;;;7.16;53.34;99326.51;363520;108;1961995;-71
2021/04/24 02:21:06;;;;;;;4.65;2.28;;;;;;;7.09;53.35;99322.91;366190;108;1962941;-70
2021/04/24 02:22:12;;;;;;;5.03;1.86;;;;;;;7.10;53.06;99322.73;366115;109;1962026;-71
2021/04/24 02:23:19;;;;;;;4.89;2.34;;;;;;;7.13;53.13;99324.20;324579;109;2024499;-71
2021/04/24 02:24:24;;;;;;;4.13;1.96;;;;;;;7.17;53.32;99322.78;365725;108;1961926;-71
2021/04/24 02:25:29;;;;;;;4.88;2.51;;;;;;;7.19;53.21;99323.43;354640;112;1961985;-71
2021/04/24 02:26:36;;;;;;;4.86;2.20;;;;;;;7.09;53.35;99320.23;351785;113;1964965;-70
2021/04/24 02:27:42;;;;;;;8.06;2.30;;;;;;;7.04;53.87;99324.34;347465;111;2931033;-72
2021/04/24 02:28:47;;;;;;;7.09;2.25;;;;;;;7.04;53.64;99331.57;352273;111;1960859;-71
2021/04/24 02:29:58;;;;;;;5.65;2.59;;;;;;;7.04;53.74;99327.02;365896;108;1962015;-72
2021/04/24 02:31:01;;;;;;;6.67;2.42;;;;;;;6.98;54.08;99326.94;345823;110;2289923;-71
2021/04/24 02:32:08;;;;;;;6.84;2.09;;;;;;;6.99;53.65;99325.94;346042;104;1961275;-71
2021/04/24 02:33:13;;;;;;;4.47;2.04;;;;;;;6.90;53.87;99311.78;369630;108;1961907;-71
2021/04/24 02:34:20;;;;;;;4.40;2.09;;;;;;;6.98;53.79;99321.57;370713;107;1962073;-71
2021/04/24 02:35:42;;;;;;;5.91;2.17;;;;;;;7.06;53.82;99332.19;333688;109;2587944;-71
2021/04/24 02:36:49;;;;;;;5.43;2.21;;;;;;;7.14;53.55;99324.00;366860;109;1962925;-70
2021/04/24 02:37:55;;;;;;;5.59;2.31;;;;;;;7.19;53.35;99332.31;323993;109;2717878;-70
2021/04/24 02:39:00;;;;;;;3.69;1.79;;;;;;;7.21;53.46;99324.91;338529;109;1962021;-71
2021/04/24 02:40:13;;;;;;;6.35;3.12;;;;;;;7.21;53.40;99326.77;367320;109;1962935;-71
2021/04/24 02:41:20;;;;;;;4.58;2.23;;;;;;;7.22;53.41;99329.27;374029;106;1961977;-71
2021/04/24 02:42:28;;;;;;;6.05;2.85;;;;;;;7.22;53.52;99326.58;372567;106;1962068;-71
2021/04/24 02:43:34;;;;;;;4.97;2.62;;;;;;;7.24;53.26;99326.38;348639;107;2935773;-70
2021/04/24 02:44:40;;;;;;;5.42;1.90;;;;;;;7.29;53.13;99333.86;332784;112;1961968;-71
2021/04/24 02:45:46;;;;;;;5.01;2.04;;;;;;;7.24;53.04;99329.06;351717;113;1964783;-71
2021/04/24 02:46:51;;;;;;;5.85;2.08;;;;;;;7.27;53.30;99334.87;352653;114;1961929;-72
2021/04/24 02:47:58;;;;;;;5.97;2.29;;;;;;;7.26;53.50;99335.08;354150;113;1961982;-71
2021/04/24 02:49:03;;;;;;;7.03;2.72;;;;;;;7.34;53.00;99328.74;315676;112;2658374;-71
2021/04/24 02:50:12;;;;;;;6.58;2.18;;;;;;;7.33;53.06;99335.98;335440;112;1962010;-70
2021/04/24 02:51:18;;;;;;;5.74;2.27;;;;;;;7.31;53.21;99339.88;307273;115;2810004;-71
2021/04/24 02:52:23;;;;;;;5.46;2.18;;;;;;;7.23;53.55;99336.30;324100;112;1961977;-71
2021/04/24 02:53:28;;;;;;;5.72;2.47;;;;;;;7.29;53.62;99337.37;346130;113;1960839;-70
2021/04/24 02:54:35;;;;;;;5.12;2.05;;;;;;;7.31;53.35;99340.70;354302;112;1961843;-72
2021/04/24 02:55:41;;;;;;;5.12;1.99;;;;;;;7.42;53.06;99333.98;351986;112;1961948;-71
2021/04/24 02:56:49;;;;;;;6.22;2.59;;;;;;;7.37;53.30;99331.86;351501;112;1962020;-72
2021/04/24 02:57:54;;;;;;;3.98;1.99;;;;;;;7.28;53.52;99330.35;354156;112;1961933;-71
2021/04/24 02:59:00;;;;;;;5.71;2.24;;;;;;;7.34;53.41;99340.31;354521;112;1961032;-71
2021/04/24 03:00:08;;;;;;;4.88;2.10;;;;;;;7.32;53.58;99336.16;352759;112;1964941;-71
2021/04/24 03:01:14;;;;;;;3.84;1.99;;;;;;;7.29;53.49;99333.86;352676;112;1962019;-71
2021/04/24 03:02:19;;;;;;;3.84;2.02;;;;;;;7.25;53.76;99328.88;354867;113;1963996;-71
2021/04/24 03:03:25;;;;;;;6.39;2.66;;;;;;;7.35;53.30;99335.77;351427;112;1961911;-71
2021/04/24 03:04:31;;;;;;;5.56;2.28;;;;;;;7.30;53.61;99335.52;307278;115;2820006;-72
2021/04/24 03:05:38;;;;;;;9.05;2.76;;;;;;;7.38;53.05;99330.86;350918;112;1961959;-72
2021/04/24 03:06:46;;;;;;;5.78;2.61;;;;;;;7.36;53.45;99335.59;347508;113;1965381;-71
2021/04/24 03:07:51;;;;;;;6.44;3.40;;;;;;;7.34;53.72;99336.80;342517;115;1961880;-71
2021/04/24 03:08:56;;;;;;;6.85;3.59;;;;;;;7.30;53.41;99325.59;358295;112;1962007;-71
2021/04/24 03:10:03;;;;;;;7.48;3.44;;;;;;;7.21;53.89;99335.64;352733;112;1961897;-71
2021/04/24 03:11:09;;;;;;;12.38;6.08;;;;;;;7.27;53.93;99331.36;353013;112;1961983;-71
2021/04/24 03:12:15;;;;;;;9.83;5.04;;;;;;;7.38;53.34;99335.38;319343;112;2891920;-71
2021/04/24 03:13:20;;;;;;;8.23;4.81;;;;;;;7.36;53.51;99337.45;328077;112;1962036;-71
2021/04/24 03:14:25;;;;;;;10.92;4.48;;;;;;;7.38;53.47;99340.75;347766;113;1962958;-71
2021/04/24 03:15:31;;;;;;;9.06;3.52;;;;;;;7.43;53.23;99349.06;355597;112;1963915;-71
2021/04/24 03:16:39;;;;;;;6.67;2.87;;;;;;;7.43;53.45;99346.37;355131;113;1961937;-72
2021/04/24 03:17:44;;;;;;;7.12;2.92;;;;;;;7.45;53.25;99336.27;320128;112;1961987;-71
2021/04/24 03:18:50;;;;;;;7.99;2.93;;;;;;;7.50;53.10;99339.22;341625;112;1961906;-71
2021/04/24 03:19:56;;;;;;;6.32;2.21;;;;;;;7.57;53.00;99336.56;351683;112;1962072;-72
2021/04/24 03:21:03;;;;;;;6.89;3.06;;;;;;;7.59;52.84;99338.03;356266;112;1962012;-71
2021/04/24 03:22:09;;;;;;;5.48;2.14;;;;;;;7.49;53.24;99340.25;342775;113;1961969;-71
2021/04/24 03:23:14;;;;;;;5.25;2.17;;;;;;;7.49;53.13;99340.25;353474;113;1964027;-71
2021/04/24 03:24:19;;;;;;;5.47;1.92;;;;;;;7.67;52.92;99345.98;356110;112;1961980;-71
2021/04/24 03:25:24;;;;;;;6.67;2.14;;;;;;;7.54;52.88;99351.25;355432;112;1962979;-72
2021/04/24 03:26:31;;;;;;;4.66;2.36;;;;;;;7.59;52.88;99353.34;349288;112;1961927;-71
2021/04/24 03:27:37;;;;;;;7.71;2.33;;;;;;;7.67;52.87;99355.88;353412;113;1961943;-72
2021/04/24 03:28:43;;;;;;;4.43;2.15;;;;;;;7.68;52.73;99344.95;348109;112;1962065;-72
2021/04/24 03:29:49;;;;;;;5.10;2.08;;;;;;;7.67;52.68;99361.26;353558;112;1961984;-71
2021/04/24 03:30:54;;;;;;;6.87;2.46;;;;;;;7.76;52.58;99351.21;352410;112;1962065;-70
2021/04/24 03:31:59;;;;;;;6.11;2.14;;;;;;;7.75;52.54;99361.11;355500;112;1962057;-71
2021/04/24 03:33:05;;;;;;;8.48;2.87;;;;;;;7.83;52.35;99357.45;354431;115;1961917;-71
2021/04/24 03:34:12;;;;;;;5.54;2.28;;;;;;;7.80;52.46;99355.16;329457;112;2395956;-71
2021/04/24 03:35:17;;;;;;;5.44;2.18;;;;;;;7.87;52.23;99351.48;353575;112;1963036;-72
2021/04/24 03:36:23;;;;;;;5.04;2.24;;;;;;;7.75;52.63;99361.11;352543;115;1962831;-70
2021/04/24 03:37:28;;;;;;;7.69;2.30;;;;;;;7.84;52.33;99367.20;353049;112;1965182;-71
2021/04/24 03:38:35;;;;;;;6.91;2.74;;;;;;;7.86;52.16;99355.22;350743;112;1965003;-71
2021/04/24 03:39:40;;;;;;;5.83;2.79;;;;;;;7.85;52.30;99363.47;305481;112;2109807;-71
2021/04/24 03:40:46;;;;;;;4.68;2.44;;;;;;;7.88;52.12;99353.14;353018;112;1962073;-71
2021/04/24 03:41:52;;;;;;;6.14;2.39;;;;;;;7.91;52.22;99365.37;354381;112;1961947;-72
2021/04/24 03:42:57;;;;;;;4.98;2.11;;;;;;;8.00;51.96;99358.83;353593;112;1961935;-72
2021/04/24 03:44:03;;;;;;;5.73;2.36;;;;;;;7.81;52.28;99370.28;356015;113;1962051;-71
2021/04/24 03:45:19;;;;;;;6.02;2.04;;;;;;;7.79;52.48;99369.64;351428;112;1964019;-72
2021/04/24 03:46:25;;;;;;;4.74;2.21;;;;;;;7.84;52.16;99368.02;315064;113;1998367;-71
2021/04/24 03:47:30;;;;;;;7.38;2.79;;;;;;;7.97;51.89;99369.98;352891;112;1962043;-72
2021/04/24 03:48:36;;;;;;;4.03;1.97;;;;;;;7.99;52.07;99376.00;351768;112;1962025;-72
2021/04/24 03:49:44;;;;;;;6.86;2.18;;;;;;;8.01;52.02;99373.92;315189;112;2680967;-71
2021/04/24 03:50:50;;;;;;;6.69;2.42;;;;;;;7.97;51.80;99371.84;343093;112;1961914;-71
2021/04/24 03:51:55;;;;;;;6.35;2.21;;;;;;;7.93;51.80;99356.08;361200;106;1960786;-72
2021/04/24 03:53:00;;;;;;;8.63;2.47;;;;;;;7.99;51.77;99372.45;372443;108;1962951;-72
2021/04/24 03:54:07;;;;;;;4.33;1.99;;;;;;;8.02;51.72;99378.30;370755;107;1961934;-71
2021/04/24 03:55:14;;;;;;;7.08;2.21;;;;;;;7.96;51.83;99378.23;367260;108;1961909;-72
2021/04/24 03:56:20;;;;;;;7.65;2.51;;;;;;;8.06;51.60;99376.86;366339;108;1962022;-72
2021/04/24 03:57:25;;;;;;;6.16;2.24;;;;;;;8.17;51.29;99380.03;367787;104;1960854;-73
2021/04/24 03:58:31;;;;;;;5.95;2.57;;;;;;;8.15;51.42;99375.69;366245;109;1961063;-71
2021/04/24 03:59:47;;;;;;;7.17;3.04;;;;;;;8.14;51.46;99381.26;361730;109;1960992;-71
2021/04/24 04:00:52;;;;;;;5.42;2.37;;;;;;;8.07;51.56;99383.92;309952;112;2098560;-71
2021/04/24 04:01:58;;;;;;;7.16;2.48;;;;;;;8.15;51.40;99381.08;333647;111;1962044;-71
2021/04/24 04:03:06;;;;;;;6.10;2.27;;;;;;;8.17;51.30;99386.23;352427;114;1962023;-71
2021/04/24 04:04:11;;;;;;;7.38;2.59;;;;;;;8.16;51.28;99376.52;352970;113;1965066;-72
2021/04/24 04:05:19;;;;;;;6.37;2.29;;;;;;;8.18;51.36;99382.54;324868;113;2507960;-71
2021/04/24 04:06:27;;;;;;;8.20;2.35;;;;;;;8.31;51.02;99387.17;357896;113;1962047;-71
2021/04/24 04:07:32;;;;;;;5.31;2.49;;;;;;;8.33;50.73;99375.16;337352;112;1961980;-72
2021/04/24 04:08:39;;;;;;;5.84;2.43;;;;;;;8.28;50.89;99374.95;354955;112;1961992;-71
2021/04/24 04:09:45;;;;;;;5.44;2.29;;;;;;;8.37;50.69;99389.06;357266;112;1961983;-71
2021/04/24 04:10:51;;;;;;;5.94;2.11;;;;;;;8.39;50.56;99389.73;332207;112;2224733;-71
2021/04/24 04:11:56;;;;;;;5.81;1.98;;;;;;;8.44;50.70;99384.59;327410;112;1962007;-71
2021/04/24 04:13:03;;;;;;;5.98;2.56;;;;;;;8.49;50.46;99383.97;345132;112;1962904;-72
2021/04/24 04:14:10;;;;;;;4.78;2.39;;;;;;;8.29;50.80;99386.53;355849;112;1961977;-72
2021/04/24 04:15:17;;;;;;;6.10;2.57;;;;;;;8.40;50.45;99391.39;316416;113;2232963;-71
2021/04/24 04:16:24;;;;;;;7.96;3.48;;;;;;;8.41;50.52;99390.34;356454;113;1963945;-71
2021/04/24 04:17:30;;;;;;;6.84;2.56;;;;;;;8.54;50.25;99384.20;332216;112;2234018;-72
2021/04/24 04:18:36;;;;;;;6.73;2.50;;;;;;;8.55;50.22;99386.71;326574;112;1961988;-71
2021/04/24 04:19:41;;;;;;;5.34;2.11;;;;;;;8.53;50.44;99387.94;353332;113;1962050;-71
2021/04/24 04:20:51;;;;;;;5.17;1.96;;;;;;;8.58;50.23;99391.69;356003;112;1962960;-71
2021/04/24 04:21:58;;;;;;;5.14;2.54;;;;;;;8.58;50.25;99397.08;356395;112;1963084;-71
2021/04/24 04:23:14;;;;;;;6.02;2.92;;;;;;;8.57;50.29;99398.12;310712;112;2770985;-71
2021/04/24 04:24:20;;;;;;;6.95;2.45;;;;;;;8.70;50.07;99388.42;363987;106;1961981;-72
2021/04/24 04:25:26;;;;;;;6.08;2.51;;;;;;;8.68;50.14;99393.17;360903;110;1961923;-71
2021/04/24 04:26:34;;;;;;;5.29;2.03;;;;;;;8.75;49.99;99388.66;322060;110;2728949;-71
2021/04/24 04:27:39;;;;;;;6.46;2.33;;;;;;;8.59;50.05;99398.72;342713;106;1961927;-71
2021/04/24 04:28:44;;;;;;;6.59;3.05;;;;;;;8.70;50.05;99405.41;372149;106;1961953;-71
2021/04/24 04:29:49;;;;;;;6.02;2.41;;;;;;;8.63;49.98;99391.10;374481;108;1963020;-71
2021/04/24 04:30:56;;;;;;;5.79;2.36;;;;;;;8.69;49.82;99402.93;371241;106;1963017;-73
2021/04/24 04:32:02;;;;;;;6.34;2.37;;;;;;;8.86;49.67;99396.15;373903;106;1961965;-72
2021/04/24 04:33:09;;;;;;;6.84;2.42;;;;;;;8.84;49.57;99397.38;350845;107;2359930;-72
2021/04/24 04:34:14;;;;;;;6.42;2.83;;;;;;;8.89;49.44;99400.30;364650;108;1963002;-72
2021/04/24 04:35:21;;;;;;;5.84;2.36;;;;;;;8.83;49.44;99415.41;363831;108;1962015;-73
2021/04/24 04:36:28;;;;;;;9.78;2.62;;;;;;;8.99;49.23;99396.19;319467;106;2143993;-72
2021/04/24 04:37:33;;;;;;;5.88;2.40;;;;;;;9.00;49.14;99397.05;374743;106;1961900;-72
2021/04/24 04:38:38;;;;;;;9.14;2.77;;;;;;;9.05;48.93;99399.97;375083;108;1961978;-70
2021/04/24 04:39:44;;;;;;;6.27;2.79;;;;;;;8.99;48.98;99412.36;373569;106;1962031;-72
2021/04/24 04:40:51;;;;;;;5.78;2.70;;;;;;;8.81;49.37;99393.23;372204;106;1961915;-72
2021/04/24 04:41:57;;;;;;;6.71;2.67;;;;;;;8.74;49.78;99398.59;324822;106;2836772;-71
2021/04/24 04:43:04;;;;;;;6.44;2.43;;;;;;;8.68;49.77;99404.80;352649;105;1962005;-72
2021/04/24 04:44:09;;;;;;;5.64;2.32;;;;;;;8.82;49.64;99389.52;352821;113;1962126;-71
2021/04/24 04:45:16;;;;;;;6.43;2.41;;;;;;;8.64;49.87;99383.84;365348;111;1962932;-72
2021/04/24 04:46:23;;;;;;;6.98;2.49;;;;;;;8.75;49.63;99386.78;364644;110;1961985;-71
2021/04/24 04:47:31;;;;;;;5.82;2.07;;;;;;;8.68;49.55;99404.80;331018;110;2889977;-72
2021/04/24 04:48:37;;;;;;;6.36;2.34;;;;;;;8.83;49.39;99399.25;361948;109;1961887;-72
2021/04/24 04:49:45;;;;;;;6.16;2.26;;;;;;;8.99;49.27;99392.67;365709;110;1961956;-71
2021/04/24 04:50:50;;;;;;;8.71;2.67;;;;;;;8.98;49.33;99397.23;339288;108;2452964;-71
2021/04/24 04:51:56;;;;;;;5.94;2.19;;;;;;;9.05;49.15;99391.89;343689;110;1961956;-71
2021/04/24 04:53:02;;;;;;;7.37;2.24;;;;;;;9.12;49.22;99397.28;364492;109;1962029;-71
2021/04/24 04:54:07;;;;;;;5.14;2.22;;;;;;;9.14;49.13;99390.66;365335;108;1961937;-71
2021/04/24 04:55:14;;;;;;;5.20;1.98;;;;;;;9.13;49.19;99396.23;364117;110;1962072;-71
2021/04/24 04:56:31;;;;;;;5.23;2.00;;;;;;;9.07;49.37;99387.10;367454;110;1963002;-71
2021/04/24 04:57:37;;;;;;;5.87;2.33;;;;;;;9.19;49.04;99396.27;367140;110;1963007;-71
2021/04/24 04:58:42;;;;;;;3.08;1.36;;;;;;;9.36;48.84;99393.19;367782;109;1962060;-71
2021/04/24 04:59:49;;;;;;;5.08;1.92;;;;;;;9.17;48.60;99395.63;314912;108;2156127;-72
2021/04/24 05:00:55;;;;;;;6.24;2.24;;;;;;;9.31;48.58;99393.79;368375;108;1960956;-71
2021/04/24 05:02:00;;;;;;;5.31;2.12;;;;;;;9.25;48.62;99397.31;368077;108;1962962;-71
2021/04/24 05:03:08;;;;;;;5.99;1.82;;;;;;;9.35;48.24;99405.84;368796;108;1961876;-72
2021/04/24 05:04:14;;;;;;;6.66;2.00;;;;;;;9.26;48.37;99398.95;346929;108;2370982;-72
2021/04/24 05:05:20;;;;;;;6.71;2.31;;;;;;;9.33;48.26;99404.38;343948;107;1962997;-71
2021/04/24 05:06:26;;;;;;;4.49;2.27;;;;;;;9.34;48.36;99414.97;370647;107;1961935;-71
2021/04/24 05:07:31;;;;;;;7.05;2.24;;;;;;;9.38;48.16;99413.52;369328;108;1963036;-71
2021/04/24 05:08:38;;;;;;;6.36;2.47;;;;;;;9.36;48.18;99404.80;311639;110;2156217;-71
2021/04/24 05:09:44;;;;;;;5.65;2.42;;;;;;;9.22;48.20;99398.55;339051;108;1964928;-72